<?xml version="1.0" encoding="utf-8"?>
<gpx xmlns:xsi="http://www.w3.org/2001/XMLSchema-instance" xmlns:xsd="http://www.w3.org/2001/XMLSchema" version="1.1" creator="Shapelink.com" xmlns="http://www.topografix.com/GPX/1/1" xmlns:gpxtpx="http://www.garmin.com/xmlschemas/TrackPointExtension/v1">
  <metadata>
    <name>Gåing 0.33 km, 2012-03-22</name>
    <desc></desc>
    <author><name>Mikael Blom</name></author> 
    <time>2012-03-22T16:44:38Z</time>
  </metadata>
  <trk>
    <name>Gåing 0.33 km, 2012-03-22</name>
    <trkseg>
      <trkpt lat="59.9764551" lon="17.739519">
        <ele>27.0543</ele>
        <time>2012-03-22T16:44:38Z</time>
      </trkpt>
      <trkpt lat="59.9765185" lon="17.7394287">
        <ele>28.0155</ele>
        <time>2012-03-22T16:44:43Z</time>
      </trkpt>
      <trkpt lat="59.9765816" lon="17.7394029">
        <ele>28.4962</ele>
        <time>2012-03-22T16:44:48Z</time>
      </trkpt>
      <trkpt lat="59.9766751" lon="17.7393498">
        <ele>29.9381</ele>
        <time>2012-03-22T16:44:56Z</time>
      </trkpt>
      <trkpt lat="59.9766993" lon="17.7393294">
        <ele>30.4188</ele>
        <time>2012-03-22T16:44:58Z</time>
      </trkpt>
      <trkpt lat="59.9767977" lon="17.7392679">
        <ele>33.3029</ele>
        <time>2012-03-22T16:45:06Z</time>
      </trkpt>
      <trkpt lat="59.9768783" lon="17.7392234">
        <ele>33.3029</ele>
        <time>2012-03-22T16:45:13Z</time>
      </trkpt>
      <trkpt lat="59.9769711" lon="17.7392124">
        <ele>33.7834</ele>
        <time>2012-03-22T16:45:19Z</time>
      </trkpt>
      <trkpt lat="59.9770619" lon="17.7391571">
        <ele>34.2642</ele>
        <time>2012-03-22T16:45:26Z</time>
      </trkpt>
      <trkpt lat="59.977153" lon="17.7391018">
        <ele>33.7834</ele>
        <time>2012-03-22T16:45:33Z</time>
      </trkpt>
      <trkpt lat="59.9772602" lon="17.7390291">
        <ele>35.7061</ele>
        <time>2012-03-22T16:45:41Z</time>
      </trkpt>
      <trkpt lat="59.9773525" lon="17.7389929">
        <ele>35.7061</ele>
        <time>2012-03-22T16:45:48Z</time>
      </trkpt>
      <trkpt lat="59.9774375" lon="17.7389713">
        <ele>36.1868</ele>
        <time>2012-03-22T16:45:55Z</time>
      </trkpt>
      <trkpt lat="59.9775067" lon="17.7389641">
        <ele>34.7449</ele>
        <time>2012-03-22T16:46:02Z</time>
      </trkpt>
      <trkpt lat="59.9775712" lon="17.7389595">
        <ele>33.3029</ele>
        <time>2012-03-22T16:46:08Z</time>
      </trkpt>
      <trkpt lat="59.97763" lon="17.7389617">
        <ele>31.3801</ele>
        <time>2012-03-22T16:46:14Z</time>
      </trkpt>
      <trkpt lat="59.9777118" lon="17.7389658">
        <ele>30.8995</ele>
        <time>2012-03-22T16:46:21Z</time>
      </trkpt>
      <trkpt lat="59.9778078" lon="17.7390047">
        <ele>34.7449</ele>
        <time>2012-03-22T16:46:27Z</time>
      </trkpt>
      <trkpt lat="59.9779147" lon="17.739043">
        <ele>38.5901</ele>
        <time>2012-03-22T16:46:34Z</time>
      </trkpt>
      <trkpt lat="59.9779741" lon="17.7390549">
        <ele>41.474</ele>
        <time>2012-03-22T16:46:38Z</time>
      </trkpt>
      <trkpt lat="59.9780637" lon="17.7391068">
        <ele>40.0321</ele>
        <time>2012-03-22T16:46:46Z</time>
      </trkpt>
      <trkpt lat="59.9780958" lon="17.7391491">
        <ele>38.1094</ele>
        <time>2012-03-22T16:46:50Z</time>
      </trkpt>
      <trkpt lat="59.9781585" lon="17.7391415">
        <ele>36.1868</ele>
        <time>2012-03-22T16:46:55Z</time>
      </trkpt>
      <trkpt lat="59.9782474" lon="17.7391741">
        <ele>35.2255</ele>
        <time>2012-03-22T16:47:02Z</time>
      </trkpt>
      <trkpt lat="59.9782972" lon="17.7391915">
        <ele>34.2642</ele>
        <time>2012-03-22T16:47:06Z</time>
      </trkpt>
      <trkpt lat="59.9783396" lon="17.7391912">
        <ele>32.3416</ele>
        <time>2012-03-22T16:47:09Z</time>
      </trkpt>
      <trkpt lat="59.9784673" lon="17.7392041">
        <ele>34.7449</ele>
        <time>2012-03-22T16:47:18Z</time>
      </trkpt>
      <trkpt lat="59.9785041" lon="17.7392088">
        <ele>33.7834</ele>
        <time>2012-03-22T16:47:21Z</time>
      </trkpt>
      <trkpt lat="59.9785961" lon="17.7392215">
        <ele>34.7449</ele>
        <time>2012-03-22T16:47:28Z</time>
      </trkpt>
      <trkpt lat="59.9786693" lon="17.7392787">
        <ele>35.2255</ele>
        <time>2012-03-22T16:47:34Z</time>
      </trkpt>
      <trkpt lat="59.9787369" lon="17.7392738">
        <ele>33.3029</ele>
        <time>2012-03-22T16:47:40Z</time>
      </trkpt>
      <trkpt lat="59.9788053" lon="17.739272">
        <ele>32.3416</ele>
        <time>2012-03-22T16:47:46Z</time>
      </trkpt>
      <trkpt lat="59.9788421" lon="17.7393888">
        <ele>27.5349</ele>
        <time>2012-03-22T16:47:54Z</time>
      </trkpt>
      <trkpt lat="59.9788381" lon="17.7394679">
        <ele>31.8607</ele>
        <time>2012-03-22T16:47:59Z</time>
      </trkpt>
      <trkpt lat="59.9788371" lon="17.7395979">
        <ele>33.7834</ele>
        <time>2012-03-22T16:48:06Z</time>
      </trkpt>
      <trkpt lat="59.978833" lon="17.7396225">
        <ele>34.7449</ele>
        <time>2012-03-22T16:48:07Z</time>
      </trkpt>
      <trkpt lat="59.9788474" lon="17.7397362">
        <ele>35.7061</ele>
        <time>2012-03-22T16:48:15Z</time>
      </trkpt>
      <trkpt lat="59.9789098" lon="17.7398345">
        <ele>35.7061</ele>
        <time>2012-03-22T16:48:23Z</time>
      </trkpt>
      <trkpt lat="59.978916" lon="17.7399085">
        <ele>36.1868</ele>
        <time>2012-03-22T16:48:28Z</time>
      </trkpt>
      <trkpt lat="59.9788966" lon="17.7399485">
        <ele>37.1481</ele>
        <time>2012-03-22T16:48:31Z</time>
      </trkpt>
      <trkpt lat="59.9788952" lon="17.7399651">
        <ele>39.0707</ele>
        <time>2012-03-22T16:48:36Z</time>
      </trkpt>
      <trkpt lat="59.9789269" lon="17.7399023">
        <ele>41.474</ele>
        <time>2012-03-22T16:48:45Z</time>
      </trkpt>
    </trkseg>
  </trk>
</gpx>